createdAt,value
2022-09-27T00:01:08.480Z,167.47
2022-09-27T00:03:37.801Z,162.90
2022-09-27T00:06:07.997Z,166.30
2022-09-27T00:08:36.550Z,162.50
2022-09-27T00:11:05.335Z,166.97
2022-09-27T00:13:33.217Z,176.63
2022-09-27T00:16:03.189Z,169.37
2022-09-27T00:18:31.238Z,175.33
2022-09-27T00:21:05.959Z,169.73
2022-09-27T00:23:34.336Z,168.87
2022-09-27T00:26:02.421Z,166.33
2022-09-27T00:28:30.914Z,168.57
2022-09-27T00:30:59.176Z,173.27
2022-09-27T00:33:27.280Z,172.70
2022-09-27T00:35:54.997Z,175.37
2022-09-27T00:38:23.983Z,176.40
2022-09-27T00:40:51.682Z,172.87
2022-09-27T00:43:21.389Z,175.10
2022-09-27T00:45:51.205Z,177.33
2022-09-27T00:48:21.375Z,176.30
2022-09-27T00:50:51.131Z,176.33
2022-09-27T00:53:21.451Z,174.37
2022-09-27T00:55:53.261Z,178.20
2022-09-27T00:58:23.071Z,176.57
2022-09-27T01:00:54.155Z,176.33
2022-09-27T01:03:26.635Z,173.40
2022-09-27T01:05:55.015Z,175.03
2022-09-27T01:08:22.608Z,174.57
2022-09-27T01:10:59.098Z,176.23
2022-09-27T01:13:32.629Z,176.13
2022-09-27T01:16:04.480Z,180.10
2022-09-27T01:18:35.874Z,177.17
2022-09-27T01:21:15.464Z,178.37
2022-09-27T01:24:15.771Z,179.20
2022-09-27T01:27:04.471Z,182.57
2022-09-27T01:29:37.412Z,181.63
2022-09-27T01:32:09.424Z,178.83
2022-09-27T01:34:44.928Z,174.67
2022-09-27T01:37:20.784Z,166.10
2022-09-27T01:39:52.203Z,168.27
2022-09-27T01:42:23.762Z,169.70
2022-09-27T01:44:54.108Z,166.57
2022-09-27T01:47:24.535Z,172.97
2022-09-27T01:49:56.736Z,166.93
2022-09-27T01:52:28.586Z,177.30
2022-09-27T01:54:58.712Z,178.17
2022-09-27T01:57:28.717Z,179.63
2022-09-27T02:00:00.334Z,179.37
2022-09-27T02:02:31.049Z,175.87
2022-09-27T02:05:01.435Z,180.63
2022-09-27T02:07:32.955Z,181.70
2022-09-27T02:10:04.901Z,177.43
2022-09-27T02:12:38.199Z,179.07
2022-09-27T02:15:08.320Z,179.90
2022-09-27T02:17:43.468Z,179.80
2022-09-27T02:20:17.116Z,180.33
2022-09-27T02:22:48.869Z,179.27
2022-09-27T02:25:21.839Z,184.83
2022-09-27T02:27:55.943Z,181.03
2022-09-27T02:30:23.603Z,181.10
2022-09-27T02:32:52.901Z,183.17
2022-09-27T02:35:25.041Z,182.50
2022-09-27T02:37:53.661Z,184.67
2022-09-27T02:40:21.471Z,177.17
2022-09-27T02:42:49.238Z,176.17
2022-09-27T02:45:18.595Z,169.80
2022-09-27T02:48:04.970Z,172.27
2022-09-27T02:50:43.051Z,175.27
2022-09-27T02:53:17.962Z,168.43
2022-09-27T02:55:52.241Z,179.57
2022-09-27T02:58:26.696Z,176.63
2022-09-27T03:00:59.387Z,177.77
2022-09-27T03:03:32.739Z,166.03
2022-09-27T03:06:03.626Z,168.00
2022-09-27T03:08:31.375Z,168.47
2022-09-27T03:10:59.017Z,179.67
2022-09-27T03:13:26.752Z,178.37
2022-09-27T03:15:57.109Z,187.17
2022-09-27T03:18:29.972Z,177.70
2022-09-27T03:20:57.590Z,179.67
2022-09-27T03:23:25.246Z,177.77
2022-09-27T03:25:52.877Z,179.47
2022-09-27T03:28:20.592Z,168.93
2022-09-27T03:30:49.235Z,172.00
2022-09-27T03:33:16.888Z,176.43
2022-09-27T03:35:45.887Z,166.13
2022-09-27T03:38:13.711Z,180.60
2022-09-27T03:40:41.456Z,172.93
2022-09-27T03:43:09.136Z,163.90
2022-09-27T03:45:36.773Z,173.43
2022-09-27T03:48:04.385Z,178.53
2022-09-27T03:50:31.991Z,176.43
2022-09-27T03:53:00.960Z,179.67
2022-09-27T03:55:28.679Z,182.03
2022-09-27T03:57:56.259Z,182.40
2022-09-27T04:00:25.236Z,182.23
2022-09-27T04:02:52.989Z,186.73
2022-09-27T04:05:20.632Z,184.50
2022-09-27T04:07:49.350Z,179.37
2022-09-27T04:10:18.326Z,178.27
2022-09-27T04:12:46.244Z,185.57
2022-09-27T04:15:13.988Z,185.30
2022-09-27T04:17:43.066Z,185.77
2022-09-27T04:20:11.135Z,183.10
2022-09-27T04:22:40.464Z,183.77
2022-09-27T04:25:09.233Z,183.37
2022-09-27T04:27:38.695Z,183.57
2022-09-27T04:30:07.753Z,181.03
2022-09-27T04:32:35.344Z,181.83
2022-09-27T04:35:20.608Z,180.83
2022-09-27T04:37:48.431Z,181.10
2022-09-27T04:40:17.045Z,181.47
2022-09-27T04:42:46.052Z,111.23
2022-09-27T04:45:13.882Z,137.60
2022-09-27T04:47:44.000Z,139.53
2022-09-27T04:50:11.862Z,140.10
2022-09-27T04:52:40.244Z,143.77
2022-09-27T04:55:09.615Z,141.67
2022-09-27T04:57:37.905Z,138.77
2022-09-27T05:00:08.508Z,148.53
2022-09-27T05:02:36.571Z,144.07
2022-09-27T05:05:06.601Z,147.87
2022-09-27T05:07:35.499Z,145.83
2022-09-27T05:10:03.115Z,150.47
2022-09-27T05:12:30.731Z,147.73
2022-09-27T05:14:58.364Z,149.10
2022-09-27T05:17:27.432Z,152.17
2022-09-27T05:19:55.051Z,151.17
2022-09-27T05:22:23.055Z,139.37
2022-09-27T05:24:50.672Z,149.13
2022-09-27T05:27:20.194Z,153.97
2022-09-27T05:29:48.091Z,155.10
2022-09-27T05:32:16.635Z,154.50
2022-09-27T05:34:45.620Z,155.73
2022-09-27T05:37:13.228Z,145.33
2022-09-27T05:39:40.907Z,150.87
2022-09-27T05:42:10.279Z,155.47
2022-09-27T05:44:38.577Z,142.13
2022-09-27T05:47:06.328Z,149.77
2022-09-27T05:49:34.371Z,150.33
2022-09-27T05:52:03.560Z,147.10
2022-09-27T05:54:31.879Z,148.13
2022-09-27T05:57:00.313Z,147.77
2022-09-27T05:59:28.594Z,143.33
2022-09-27T06:01:56.402Z,146.47
2022-09-27T06:04:24.102Z,153.90
2022-09-27T06:06:51.713Z,151.07
2022-09-27T06:09:20.660Z,149.63
2022-09-27T06:11:48.293Z,147.23
2022-09-27T06:14:16.186Z,154.40
2022-09-27T06:16:45.599Z,149.87
2022-09-27T06:19:13.299Z,153.00
2022-09-27T06:21:41.083Z,153.97
2022-09-27T06:24:09.047Z,152.07
2022-09-27T06:26:38.115Z,152.47
2022-09-27T06:29:06.012Z,148.10
2022-09-27T06:31:33.577Z,125.90
2022-09-27T06:34:01.378Z,133.43
2022-09-27T06:36:28.988Z,148.33
2022-09-27T06:38:56.606Z,152.90
2022-09-27T06:41:24.296Z,146.37
2022-09-27T06:43:53.450Z,147.57
2022-09-27T06:46:21.155Z,146.50
2022-09-27T06:48:48.787Z,142.40
2022-09-27T06:51:16.461Z,146.57
2022-09-27T06:53:44.075Z,142.93
2022-09-27T06:56:12.045Z,148.47
2022-09-27T06:58:57.179Z,133.73
2022-09-27T07:01:30.200Z,146.50
2022-09-27T07:03:58.800Z,147.47
2022-09-27T07:06:26.776Z,144.93
2022-09-27T07:08:55.024Z,138.80
2022-09-27T07:11:23.297Z,144.33
2022-09-27T07:13:51.748Z,145.47
2022-09-27T07:16:19.535Z,142.97
2022-09-27T07:18:49.152Z,145.17
2022-09-27T07:21:16.966Z,149.10
2022-09-27T07:23:44.571Z,149.17
2022-09-27T07:26:12.619Z,147.03
2022-09-27T07:28:41.594Z,147.77
2022-09-27T07:31:09.627Z,144.07
2022-09-27T07:33:42.364Z,145.07
2022-09-27T07:36:13.726Z,145.47
2022-09-27T07:38:41.347Z,141.17
2022-09-27T07:41:10.055Z,145.67
2022-09-27T07:43:37.681Z,145.27
2022-09-27T07:46:05.306Z,146.07
2022-09-27T07:48:33.170Z,144.63
2022-09-27T07:51:00.946Z,146.30
2022-09-27T07:53:29.895Z,146.77
2022-09-27T07:55:57.485Z,145.37
2022-09-27T07:58:25.086Z,144.93
2022-09-27T08:00:56.178Z,150.07
2022-09-27T08:03:23.802Z,141.10
2022-09-27T08:05:51.407Z,140.97
2022-09-27T08:08:19.048Z,149.10
2022-09-27T08:10:48.006Z,144.37
2022-09-27T08:13:17.881Z,141.40
2022-09-27T08:15:45.526Z,146.77
2022-09-27T08:18:13.111Z,145.37
2022-09-27T08:20:41.090Z,138.67
2022-09-27T08:23:08.794Z,143.73
2022-09-27T08:25:36.522Z,146.73
2022-09-27T08:28:05.710Z,150.30
2022-09-27T08:30:33.394Z,150.13
2022-09-27T08:33:03.380Z,148.77
2022-09-27T08:35:33.771Z,151.93
2022-09-27T08:38:02.735Z,148.67
2022-09-27T08:40:39.158Z,149.97
2022-09-27T08:43:15.094Z,151.10
2022-09-27T08:45:55.694Z,150.80
2022-09-27T08:48:25.152Z,140.67
2022-09-27T08:50:52.883Z,153.93
2022-09-27T08:53:23.251Z,144.47
2022-09-27T08:55:53.637Z,156.47
2022-09-27T08:58:27.140Z,148.23
2022-09-27T09:00:56.326Z,155.97
2022-09-27T09:03:26.064Z,150.67
2022-09-27T09:06:08.364Z,152.87
2022-09-27T09:08:44.390Z,147.43
2022-09-27T09:11:41.836Z,149.50
2022-09-27T09:14:34.008Z,153.47
2022-09-27T09:17:06.007Z,148.03
2022-09-27T09:19:44.439Z,153.60
2022-09-27T09:22:28.706Z,153.07
2022-09-27T09:25:07.220Z,152.87
2022-09-27T09:27:39.887Z,150.40
2022-09-27T09:30:23.146Z,158.47
2022-09-27T09:33:06.359Z,156.20
2022-09-27T09:35:38.364Z,150.43
2022-09-27T09:38:08.153Z,151.57
2022-09-27T09:40:40.394Z,151.73
2022-09-27T09:43:12.360Z,151.57
2022-09-27T09:45:42.994Z,156.87
2022-09-27T09:48:16.572Z,156.53
2022-09-27T09:50:46.897Z,157.20
2022-09-27T09:53:17.580Z,149.87
2022-09-27T09:55:48.938Z,156.03
2022-09-27T09:58:22.743Z,155.30
2022-09-27T10:00:53.157Z,154.17
2022-09-27T10:03:20.880Z,155.90
2022-09-27T10:05:48.548Z,136.80
2022-09-27T10:08:19.723Z,152.73
2022-09-27T10:10:47.756Z,155.47
2022-09-27T10:13:17.395Z,153.33
2022-09-27T10:15:47.468Z,160.40
2022-09-27T10:18:19.119Z,155.57
2022-09-27T10:20:50.607Z,158.43
2022-09-27T10:23:21.036Z,156.93
2022-09-27T10:25:52.164Z,159.87
2022-09-27T10:28:37.128Z,157.27
2022-09-27T10:31:06.335Z,151.43
2022-09-27T10:33:36.235Z,154.03
2022-09-27T10:36:04.418Z,153.97
2022-09-27T10:38:33.778Z,151.83
2022-09-27T10:41:18.276Z,152.93
2022-09-27T10:43:46.356Z,159.30
2022-09-27T10:46:19.044Z,156.93
2022-09-27T10:48:48.032Z,160.13
2022-09-27T10:51:26.621Z,158.47
2022-09-27T10:53:58.610Z,155.50
2022-09-27T10:56:29.713Z,157.13
2022-09-27T10:58:59.099Z,154.17
2022-09-27T11:01:27.318Z,158.00
2022-09-27T11:03:59.155Z,156.40
2022-09-27T11:06:30.711Z,161.03
2022-09-27T11:09:11.921Z,159.87
2022-09-27T11:11:39.540Z,159.13
2022-09-27T11:14:19.339Z,160.23
2022-09-27T11:17:04.258Z,159.47
2022-09-27T11:19:45.714Z,158.97
2022-09-27T11:22:24.877Z,156.33
2022-09-27T11:25:03.606Z,160.27
2022-09-27T11:27:39.640Z,159.73
2022-09-27T11:30:11.158Z,160.03
2022-09-27T11:32:51.795Z,150.63
2022-09-27T11:35:33.258Z,156.63
2022-09-27T11:38:10.183Z,158.43
2022-09-27T11:42:01.199Z,163.57
2022-09-27T11:44:38.737Z,141.13
2022-09-27T11:47:12.901Z,155.77
2022-09-27T11:49:54.541Z,144.13
2022-09-27T11:52:31.087Z,151.73
2022-09-27T11:55:17.668Z,151.53
2022-09-27T11:57:55.134Z,152.37
2022-09-27T12:00:24.518Z,155.77
2022-09-27T12:03:20.915Z,147.87
2022-09-27T12:06:07.211Z,153.47
2022-09-27T12:08:48.441Z,152.70
2022-09-27T12:11:19.419Z,155.37
2022-09-27T12:13:50.287Z,155.93
2022-09-27T12:16:19.258Z,152.03
2022-09-27T12:18:51.262Z,144.60
2022-09-27T12:21:20.040Z,156.27
2022-09-27T12:23:50.249Z,148.63
2022-09-27T12:26:20.166Z,153.37
2022-09-27T12:28:52.455Z,155.73
2022-09-27T12:31:29.812Z,155.10
2022-09-27T12:34:04.505Z,146.17
2022-09-27T12:36:38.405Z,156.47
2022-09-27T12:39:12.078Z,150.73
2022-09-27T12:41:41.740Z,147.10
2022-09-27T12:44:11.699Z,148.90
2022-09-27T12:46:48.459Z,155.67
2022-09-27T12:49:21.640Z,152.13
2022-09-27T12:51:52.498Z,153.00
2022-09-27T12:54:32.322Z,156.00
2022-09-27T12:57:04.652Z,152.90
2022-09-27T12:59:45.660Z,153.27
2022-09-27T13:02:39.378Z,150.40
2022-09-27T13:05:29.323Z,156.00
2022-09-27T13:08:06.258Z,155.77
2022-09-27T13:10:42.588Z,154.83
2022-09-27T13:13:12.850Z,151.30
2022-09-27T13:15:45.141Z,157.10
2022-09-27T13:18:32.257Z,156.90
2022-09-27T13:20:59.755Z,158.97
2022-09-27T13:24:00.489Z,148.60
2022-09-27T13:26:50.329Z,149.57
2022-09-27T13:29:27.128Z,148.23
2022-09-27T13:32:23.955Z,152.93
2022-09-27T13:34:53.623Z,150.93
2022-09-27T13:37:50.535Z,152.43
2022-09-27T13:40:30.585Z,156.07
2022-09-27T13:43:29.472Z,148.17
2022-09-27T13:45:58.348Z,153.13
2022-09-27T13:48:30.300Z,154.83
2022-09-27T13:51:02.034Z,160.23
2022-09-27T13:53:33.201Z,159.17
2022-09-27T13:56:00.747Z,153.97
2022-09-27T13:58:36.777Z,159.77
2022-09-27T14:01:07.195Z,158.57
2022-09-27T14:04:25.690Z,154.83
2022-09-27T14:06:58.043Z,148.80
2022-09-27T14:09:28.596Z,149.33
2022-09-27T14:11:58.795Z,157.17
2022-09-27T14:14:30.166Z,160.67
2022-09-27T14:16:59.956Z,160.77
2022-09-27T14:19:28.024Z,155.23
2022-09-27T14:22:14.180Z,159.00
2022-09-27T14:24:47.576Z,158.07
2022-09-27T14:27:18.126Z,153.40
2022-09-27T14:29:48.839Z,165.23
2022-09-27T14:32:18.560Z,162.27
2022-09-27T14:34:46.486Z,162.50
2022-09-27T14:37:26.278Z,155.23
2022-09-27T14:39:59.352Z,155.27
2022-09-27T14:42:28.592Z,160.80
2022-09-27T14:44:57.376Z,157.17
2022-09-27T14:47:26.087Z,156.07
2022-09-27T14:49:55.069Z,160.43
2022-09-27T14:52:27.767Z,145.50
2022-09-27T14:54:59.902Z,160.33
2022-09-27T14:57:28.603Z,159.50
2022-09-27T14:59:57.609Z,154.63
2022-09-27T15:02:26.371Z,157.57
2022-09-27T15:04:54.682Z,156.17
2022-09-27T15:07:23.939Z,152.87
2022-09-27T15:09:52.442Z,156.57
2022-09-27T15:12:25.292Z,153.97
2022-09-27T15:14:55.087Z,154.27
2022-09-27T15:17:22.977Z,154.13
2022-09-27T15:20:01.119Z,156.57
2022-09-27T15:22:38.416Z,154.97
2022-09-27T15:25:09.016Z,158.77
2022-09-27T15:27:36.544Z,157.87
2022-09-27T15:30:05.587Z,154.47
2022-09-27T15:32:33.084Z,155.33
2022-09-27T15:35:08.079Z,159.60
2022-09-27T15:37:38.547Z,151.80
2022-09-27T15:41:00.894Z,156.93
2022-09-27T15:43:31.413Z,156.23
2022-09-27T15:46:02.875Z,154.33
2022-09-27T15:48:32.067Z,157.03
2022-09-27T15:51:00.573Z,160.80
2022-09-27T15:53:47.205Z,156.60
2022-09-27T15:56:16.512Z,156.93
2022-09-27T15:58:44.808Z,156.00
2022-09-27T16:01:18.208Z,161.17
2022-09-27T16:03:45.863Z,159.73
2022-09-27T16:06:14.728Z,159.23
2022-09-27T16:08:43.720Z,163.23
2022-09-27T16:11:15.596Z,148.53
2022-09-27T16:13:43.440Z,150.67
2022-09-27T16:16:16.972Z,149.20
2022-09-27T16:18:45.068Z,152.27
2022-09-27T16:21:12.780Z,151.23
2022-09-27T16:23:40.383Z,153.67
2022-09-27T16:26:08.416Z,161.20
2022-09-27T16:28:37.342Z,159.47
2022-09-27T16:31:05.703Z,158.47
2022-09-27T16:33:33.890Z,152.40
2022-09-27T16:36:02.297Z,162.47
2022-09-27T16:38:30.234Z,158.80
2022-09-27T16:41:02.468Z,148.67
2022-09-27T16:43:31.389Z,155.47
2022-09-27T16:46:07.160Z,162.03
2022-09-27T16:48:34.839Z,158.57
2022-09-27T16:51:24.979Z,154.73
2022-09-27T16:53:52.492Z,162.17
2022-09-27T16:56:20.359Z,157.60
2022-09-27T16:58:48.533Z,152.47
2022-09-27T17:01:17.517Z,153.30
2022-09-27T17:03:45.709Z,160.73
2022-09-27T17:06:13.226Z,157.50
2022-09-27T17:08:40.720Z,161.03
2022-09-27T17:11:08.526Z,162.00
2022-09-27T17:13:36.008Z,163.70
2022-09-27T17:16:05.959Z,158.87
2022-09-27T17:18:34.872Z,161.47
2022-09-27T17:21:03.390Z,158.77
2022-09-27T17:23:31.066Z,160.53
2022-09-27T17:26:03.943Z,161.27
2022-09-27T17:28:31.475Z,161.57
2022-09-27T17:31:08.641Z,163.40
2022-09-27T17:33:43.295Z,159.93
2022-09-27T17:36:12.280Z,162.67
2022-09-27T17:38:40.322Z,163.93
2022-09-27T17:41:11.347Z,165.00
2022-09-27T17:43:43.561Z,166.70
2022-09-27T17:46:11.481Z,164.00
2022-09-27T17:48:57.959Z,165.63
2022-09-27T17:51:25.472Z,165.13
2022-09-27T17:53:53.206Z,163.03
2022-09-27T17:56:20.718Z,161.87
2022-09-27T17:58:48.828Z,167.07
2022-09-27T18:01:17.480Z,163.00
2022-09-27T18:03:46.563Z,168.67
2022-09-27T18:06:16.112Z,165.50
2022-09-27T18:08:43.763Z,164.30
2022-09-27T18:11:13.142Z,164.13
2022-09-27T18:13:43.863Z,163.37
2022-09-27T18:16:13.207Z,163.67
2022-09-27T18:18:42.286Z,169.17
2022-09-27T18:21:13.983Z,166.97
2022-09-27T18:23:42.055Z,165.80
2022-09-27T18:26:10.366Z,169.17
2022-09-27T18:28:39.289Z,168.07
2022-09-27T18:31:09.022Z,164.93
2022-09-27T18:33:37.528Z,165.73
2022-09-27T18:36:06.871Z,172.83
2022-09-27T18:38:36.207Z,167.20
2022-09-27T18:41:08.033Z,169.77
2022-09-27T18:43:38.865Z,167.00
2022-09-27T18:46:34.028Z,166.60
2022-09-27T18:48:58.399Z,164.40
2022-09-27T18:51:27.310Z,169.30
2022-09-27T18:53:58.336Z,159.43
2022-09-27T18:56:26.843Z,162.93
2022-09-27T18:58:54.960Z,165.97
2022-09-27T19:01:23.171Z,166.07
2022-09-27T19:03:50.835Z,162.93
2022-09-27T19:06:20.030Z,163.97
2022-09-27T19:08:47.967Z,164.07
2022-09-27T19:11:18.311Z,161.07
2022-09-27T19:13:51.562Z,160.80
2022-09-27T19:16:20.813Z,163.60
2022-09-27T19:18:48.843Z,158.87
2022-09-27T19:21:18.057Z,157.87
2022-09-27T19:23:45.959Z,158.50
2022-09-27T19:26:17.932Z,161.80
2022-09-27T19:28:45.978Z,162.87
2022-09-27T19:31:14.670Z,155.63
2022-09-27T19:33:42.667Z,164.47
2022-09-27T19:36:11.586Z,159.03
2022-09-27T19:38:39.570Z,158.97
2022-09-27T19:41:09.139Z,159.97
2022-09-27T19:43:38.131Z,165.57
2022-09-27T19:46:06.021Z,159.17
2022-09-27T19:48:34.619Z,163.47
2022-09-27T19:51:02.408Z,164.23
2022-09-27T19:53:32.298Z,160.93
2022-09-27T19:56:00.611Z,163.53
2022-09-27T19:58:29.456Z,160.63
2022-09-27T20:01:06.341Z,159.60
2022-09-27T20:03:34.551Z,159.67
2022-09-27T20:06:03.128Z,163.00
2022-09-27T20:08:31.164Z,169.07
2022-09-27T20:11:05.921Z,162.47
2022-09-27T20:13:34.514Z,158.00
2022-09-27T20:16:05.056Z,156.93
2022-09-27T20:18:32.659Z,155.13
2022-09-27T20:21:01.392Z,135.53
2022-09-27T20:23:29.494Z,154.27
2022-09-27T20:26:01.327Z,145.87
2022-09-27T20:28:28.993Z,156.07
2022-09-27T20:30:58.186Z,154.47
2022-09-27T20:33:43.688Z,161.53
2022-09-27T20:36:12.804Z,161.37
2022-09-27T20:38:41.211Z,161.07
2022-09-27T20:41:09.218Z,162.70
2022-09-27T20:43:36.871Z,159.90
2022-09-27T20:46:05.930Z,161.37
2022-09-27T20:48:35.107Z,158.00
2022-09-27T20:51:04.922Z,158.03
2022-09-27T20:53:32.867Z,161.03
2022-09-27T20:56:02.624Z,162.43
2022-09-27T20:58:30.914Z,165.23
2022-09-27T21:00:59.024Z,166.97
2022-09-27T21:03:26.553Z,163.70
2022-09-27T21:05:55.940Z,162.33
2022-09-27T21:08:23.970Z,161.70
2022-09-27T21:10:53.754Z,158.43
2022-09-27T21:13:21.614Z,149.37
2022-09-27T21:15:49.243Z,166.17
2022-09-27T21:18:19.452Z,161.37
2022-09-27T21:20:46.945Z,152.30
2022-09-27T21:23:15.811Z,149.97
2022-09-27T21:25:43.759Z,167.07
2022-09-27T21:28:11.699Z,163.60
2022-09-27T21:30:39.200Z,166.33
2022-09-27T21:33:06.688Z,167.17
2022-09-27T21:35:34.191Z,165.67
2022-09-27T21:38:01.725Z,186.00
2022-09-27T21:40:31.389Z,186.43
2022-09-27T21:42:58.923Z,188.57
2022-09-27T21:45:26.432Z,184.23
2022-09-27T21:47:53.913Z,193.07
2022-09-27T21:50:21.448Z,186.47
2022-09-27T21:52:49.896Z,187.50
2022-09-27T21:55:17.420Z,192.87
2022-09-27T21:57:46.247Z,189.77
2022-09-27T22:00:14.703Z,187.63
2022-09-27T22:02:42.817Z,189.70
2022-09-27T22:05:10.690Z,184.73
2022-09-27T22:07:38.543Z,186.13
2022-09-27T22:10:07.149Z,188.07
2022-09-27T22:12:34.647Z,184.07
2022-09-27T22:15:03.586Z,181.87
2022-09-27T22:17:31.118Z,182.23
2022-09-27T22:19:58.612Z,182.27
2022-09-27T22:22:26.120Z,182.50
2022-09-27T22:24:53.972Z,186.87
2022-09-27T22:28:11.659Z,187.27
2022-09-27T22:30:39.184Z,185.23
2022-09-27T22:33:06.683Z,187.23
2022-09-27T22:35:34.399Z,183.73
2022-09-27T22:38:02.113Z,186.27
2022-09-27T22:40:30.403Z,183.43
2022-09-27T22:42:57.920Z,186.53
2022-09-27T22:45:27.304Z,182.53
2022-09-27T22:47:54.788Z,184.17
2022-09-27T22:50:22.390Z,180.73
2022-09-27T22:52:49.871Z,182.67
2022-09-27T22:55:17.531Z,182.87
2022-09-27T22:57:45.036Z,186.37
2022-09-27T23:00:13.783Z,187.03
2022-09-27T23:02:42.632Z,184.67
2022-09-27T23:05:10.338Z,185.33
2022-09-27T23:07:37.939Z,184.07
2022-09-27T23:10:06.815Z,183.07
2022-09-27T23:12:34.770Z,183.37
2022-09-27T23:15:02.292Z,185.30
2022-09-27T23:17:29.775Z,182.17
2022-09-27T23:19:58.614Z,181.50
2022-09-27T23:22:26.115Z,181.07
2022-09-27T23:24:53.599Z,182.07
2022-09-27T23:27:38.852Z,184.07
2022-09-27T23:30:07.125Z,182.80
2022-09-27T23:32:34.647Z,180.63
2022-09-27T23:35:03.510Z,182.40
2022-09-27T23:37:31.087Z,182.47
2022-09-27T23:39:58.614Z,182.67
2022-09-27T23:42:26.952Z,182.70
2022-09-27T23:44:55.704Z,184.40
2022-09-27T23:47:23.264Z,181.87
2022-09-27T23:49:51.134Z,182.97
2022-09-27T23:52:20.004Z,181.97
2022-09-27T23:54:47.847Z,180.97
2022-09-27T23:57:15.372Z,179.97
2022-09-27T23:59:42.930Z,178.27
